Home > Products > Valid Products > MTR

000
SAUS43 KDDC 010158
MTRP28
METAR KP28 010156Z AUTO 31007KT 11/05 A2989 RMK AO1 SLP123 T01060050





000
SAUS43 KDDC 010058
MTRP28
METAR KP28 010056Z AUTO 32009KT 13/04 A2986 RMK AO1 SLP112 T01330044





000
SAUS43 KDDC 010058
MTRP28
METAR KP28 010056Z AUTO 32009KT 13/04 A2986 RMK AO1 SLP112 T01330044





000
SAUS43 KDDC 302357
MTRP28
METAR KP28 302356Z AUTO 30011G19KT 16/03 A2984 RMK AO1 SLP103
T01560033 10172 20128 53007





000
SAUS43 KDDC 302258
MTRP28
METAR KP28 302256Z AUTO 31013KT 16/04 A2983 RMK AO1 SLP098 T01610039





000
SAUS43 KDDC 302158
MTRP28
METAR KP28 302156Z AUTO 30012G21KT 17/04 A2981 RMK AO1 SLP093
T01670044





000
SAUS43 KDDC 302058
MTRP28
METAR KP28 302056Z AUTO 31011KT 16/05 A2982 RMK AO1 SLP094 T01560050
56004





000
SAUS43 KDDC 301958
MTRP28
METAR KP28 301956Z AUTO 27016G22KT 15/06 A2982 RMK AO1 SLP096
T01500056





000
SAUS43 KDDC 301958
MTRP28
METAR KP28 301956Z AUTO 27016G22KT 15/06 A2982 RMK AO1 SLP096
T01500056





000
SAUS43 KDDC 301857
MTRP28
METAR KP28 301856Z AUTO 29011KT 16/06 A2982 RMK AO1 SLP097 T01560056





000
SAUS43 KDDC 301758
MTRP28
METAR KP28 301756Z AUTO 28009KT 14/06 A2983 RMK AO1 SLP100 T01390061
10139 20067 51011





000
SAUS43 KDDC 301758
MTRP28
METAR KP28 301756Z AUTO 28009KT 14/06 A2983 RMK AO1 SLP100 T01390061
10139 20067 51011





000
SAUS43 KDDC 301658
MTRP28
METAR KP28 301656Z AUTO 27012G17KT 12/06 A2983 RMK AO1 SLP100
T01170056





000
SAUS43 KDDC 301658
MTRP28
METAR KP28 301656Z AUTO 27012G17KT 12/06 A2983 RMK AO1 SLP100
T01170056





000
SAUS43 KDDC 301557
MTRP28
METAR KP28 301556Z AUTO 28010KT 11/06 A2981 RMK AO1 SLP096 T01060056





000
SAUS43 KDDC 301458
MTRP28
METAR KP28 301456Z AUTO 27011KT 08/05 A2979 RMK AO1 SLP090 T00830050
50013





000
SAUS43 KDDC 301358
MTRP28
METAR KP28 301356Z AUTO 28009KT 07/05 A2980 RMK AO1 SLP091 T00720050





000
SAUS43 KDDC 301257
MTRP28
METAR KP28 301256Z AUTO 31010KT 07/05 A2977 RMK AO1 SLP084 T00720050





000
SAUS43 KDDC 301158
MTRP28
METAR KP28 301156Z AUTO 30010G16KT 07/06 A2976 RMK AO1 SLP078 70091
T00670056 10089 20067 53010





000
SAUS43 KDDC 301058
MTRP28
METAR KP28 301056Z AUTO 30007KT 08/07 A2973 RMK AO1 SLP070 T00780067





000
SAUS43 KDDC 300957
MTRP28
METAR KP28 300956Z AUTO 32011G17KT 08/07 A2972 RMK AO1 SLP065
T00780067





000
SAUS43 KDDC 300858
MTRP28
METAR KP28 300856Z AUTO 32012KT 08/07 A2973 RMK AO1 SLP068 T00830072
53003





000
SAUS43 KDDC 300757
MTRP28
METAR KP28 300756Z AUTO 32009KT 08/07 A2971 RMK AO1 SLP063 T00830072





000
SAUS43 KDDC 300658
MTRP28
METAR KP28 300656Z AUTO 33008KT 09/08 A2972 RMK AO1 SLP065 T00890083





000
SAUS43 KDDC 300558
MTRP28
METAR KP28 300556Z AUTO 33010KT 09/08 A2972 RMK AO1 SLP064 60002
T00890083 10106 20089 401220067 58004





000
SAUS43 KDDC 300457
MTRP28
METAR KP28 300456Z AUTO 33010KT 09/08 A2973 RMK AO1 SLP070 P0002
T00890083





000
SAUS43 KDDC 300358
MTRP28
METAR KP28 300356Z AUTO 33010KT 09/09 A2974 RMK AO1 SLP072 T00940089





000
SAUS43 KDDC 300258
MTRP28
METAR KP28 300256Z AUTO 33008KT 10/09 A2973 RMK AO1 SLP068 T01000094
50014





000
SAUS43 KDDC 300157
MTRP28
METAR KP28 300156Z AUTO 35004KT 10/10 A2973 RMK AO1 SLP068 T01000100





000
SAUS43 KDDC 300058
MTRP28
METAR KP28 300056Z AUTO 26010KT 11/09 A2971 RMK AO1 SLP062 T01060094





000
SAUS43 KDDC 300058
MTRP28
METAR KP28 300056Z AUTO 26010KT 11/09 A2971 RMK AO1 SLP062 T01060094





000
SAUS43 KDDC 292358
MTRP28
METAR KP28 292356Z AUTO 05007KT 11/09 A2969 RMK AO1 PK WND
06028/2302 SLP053 60045 T01060089 10106 20067 55012





000
SAUS43 KDDC 292257
MTRP28
METAR KP28 292256Z AUTO 06016G22KT 09/08 A2966 RMK AO1 SLP043
T00940083





000
SAUS43 KDDC 292158
MTRP28
METAR KP28 292156Z AUTO 05014G20KT 09/08 A2970 RMK AO1 PK WND
04026/2132 SLP059 T00890078





000
SAUS43 KDDC 292158
MTRP28
METAR KP28 292156Z AUTO 05014G20KT 09/08 A2970 RMK AO1 PK WND
04026/2132 SLP059 T00890078





000
SAUS43 KDDC 292100 COR
MTRP28
METAR KP28 292056Z AUTO 05015G24KT 08/07 A2972 RMK AO1 PK WND
03031/2028 SLP065 60045 T00830072 58023





000
SAUS43 KDDC 292059 COR
MTRP28
METAR KP28 292056Z AUTO 05015G24KT 08/07 A2972 RMK AO1 PK WND
03031/2028 SLP065 60045 T00830072 58023





000
SAUS43 KDDC 292059 COR
MTRP28
METAR KP28 292056Z AUTO 05015G24KT 08/07 A2972 RMK AO1 PK WND
03031/2028 SLP065 60045 T00830072 58023





000
SAUS43 KDDC 291957
MTRP28
METAR KP28 291956Z AUTO 04016G28KT 08/07 A2975 RMK AO1 PK WND
04028/1947 SLP075 P0004 T00830072





000
SAUS43 KDDC 291858
MTRP28
METAR KP28 291856Z AUTO 01015G24KT 07/07 A2981 RMK AO1 PK WND
25037/1813 WSHFT 1758 SLP093 P0041 T00720067





000
SAUS43 KDDC 291820
MTRP28
SPECI KP28 291818Z AUTO 03024G37KT 08/07 A2974 RMK AO1 PK WND
25037/1813 WSHFT 1758 PRESFR P0009 T00780072





000
SAUS43 KDDC 291820
MTRP28
SPECI KP28 291818Z AUTO 03024G37KT 08/07 A2974 RMK AO1 PK WND
25037/1813 WSHFT 1758 PRESFR P0009 T00780072





000
SAUS43 KDDC 291758
MTRP28
METAR KP28 291756Z AUTO 04017G23KT 08/07 A2979 RMK AO1 PK WND
05028/1712 SLP089 P0011 60044 T00830072 10094 20083 56025





000
SAUS43 KDDC 291758
MTRP28
METAR KP28 291756Z AUTO 04017G23KT 08/07 A2979 RMK AO1 PK WND
05028/1712 SLP089 P0011 60044 T00830072 10094 20083 56025





000
SAUS43 KDDC 291657
MTRP28
METAR KP28 291656Z AUTO 05020G29KT 08/07 A2980 RMK AO1 PK WND
05031/1642 SLP089 P0007 T00830072





000
SAUS43 KDDC 291557
MTRP28
METAR KP28 291556Z AUTO 04015KT 08/07 A2985 RMK AO1 PK WND
04029/1534 SLP109 P0019 T00830072





000
SAUS43 KDDC 291557
MTRP28
METAR KP28 291556Z AUTO 04015KT 08/07 A2985 RMK AO1 PK WND
04029/1534 SLP109 P0019 T00830072





000
SAUS43 KDDC 291457
MTRP28
METAR KP28 291456Z AUTO 05018G27KT 08/07 A2987 RMK AO1 PK WND
05035/1415 PRESRR SLP113 P0001 60007 T00830072 58014





000
SAUS43 KDDC 291357
MTRP28
METAR KP28 291356Z AUTO 05021G29KT 09/08 A2988 RMK AO1 PK WND
05032/1333 SLP117 P0001 T00890078





000
SAUS43 KDDC 291357
MTRP28
METAR KP28 291356Z AUTO 05021G29KT 09/08 A2988 RMK AO1 PK WND
05032/1333 SLP117 P0001 T00890078





000
SAUS43 KDDC 291258
MTRP28
METAR KP28 291256Z AUTO 03020G31KT 09/08 A2992 RMK AO1 PK WND
02031/1250 WSHFT 1147 SLP129 P0005 T00890078





000
SAUS43 KDDC 291208
MTRP28
SPECI KP28 291207Z AUTO 01017G26KT 09/08 A2995 RMK AO1 PK WND
01026/1158 WSHFT 1147 P0003 T00940083





000
SAUS43 KDDC 291157
MTRP28
METAR KP28 291156Z AUTO 01019G28KT 09/08 A2991 RMK AO1 PK WND
02036/1126 WSHFT 1043 SLP125 P0002 60004 70025 T00940083 10122 20094
53016





000
SAUS43 KDDC 291157
MTRP28
METAR KP28 291156Z AUTO 01019G28KT 09/08 A2991 RMK AO1 PK WND
02036/1126 WSHFT 1043 SLP125 P0002 60004 70025 T00940083 10122 20094
53016





000
SAUS43 KDDC 291104
MTRP28
SPECI KP28 291103Z AUTO 02019G25KT 10/09 A2988 RMK AO1 WSHFT 1043
P0001 T01000089





000
SAUS43 KDDC 291057
MTRP28
METAR KP28 291056Z AUTO 35015G22KT 10/09 A2989 RMK AO1 WSHFT 1028
SLP118 P0002 T01000089





000
SAUS43 KDDC 291050
MTRP28
SPECI KP28 291048Z AUTO 01013G24KT 11/09 A2989 RMK AO1 WSHFT 1028
T01060089





000
SAUS43 KDDC 291050
MTRP28
SPECI KP28 291048Z AUTO 01013G24KT 11/09 A2989 RMK AO1 WSHFT 1028
T01060089





000
SAUS43 KDDC 290958
MTRP28
METAR KP28 290956Z AUTO 06015G24KT 11/09 A2985 RMK AO1 SLP104
T01060089





000
SAUS43 KDDC 290958
MTRP28
METAR KP28 290956Z AUTO 06015G24KT 11/09 A2985 RMK AO1 SLP104
T01060089





000
SAUS43 KDDC 290858
MTRP28
METAR KP28 290856Z AUTO 05012KT 11/09 A2986 RMK AO1 SLP107 T01110089
58042





000
SAUS43 KDDC 290757
MTRP28
METAR KP28 290756Z AUTO 07012G19KT 11/09 A2991 RMK AO1 SLP125
T01110094





000
SAUS43 KDDC 290757
MTRP28
METAR KP28 290756Z AUTO 07012G19KT 11/09 A2991 RMK AO1 SLP125
T01110094





000
SAUS43 KDDC 290658
MTRP28
METAR KP28 290656Z AUTO 05013G19KT 12/10 A2995 RMK AO1 SLP138
T01170100





000
SAUS43 KDDC 290557
MTRP28
METAR KP28 290556Z AUTO 07013G20KT 12/10 A2999 RMK AO1 SLP152 60021
T01170100 10178 20117 402060072 58005





000
SAUS43 KDDC 290557
MTRP28
METAR KP28 290556Z AUTO 07013G20KT 12/10 A2999 RMK AO1 SLP152 60021
T01170100 10178 20117 402060072 58005





000
SAUS43 KDDC 290457
MTRP28
METAR KP28 290456Z AUTO 05011G23KT 12/10 A3001 RMK AO1 PK WND
02027/0446 PRESRR SLP161 P0006 T01220100





000
SAUS43 KDDC 290358
MTRP28
METAR KP28 290356Z AUTO 02015KT 12/11 A3000 RMK AO1 SLP157 P0009
T01220106





000
SAUS43 KDDC 290258
MTRP28
METAR KP28 290256Z AUTO 01008KT 13/11 A3001 RMK AO1 SLP160 P0006
60006 T01330111 53023





000
SAUS43 KDDC 290157
MTRP28
METAR KP28 290156Z AUTO 09005KT 15/09 A2997 RMK AO1 SLP147 T01500089





000
SAUS43 KDDC 290058
MTRP28
METAR KP28 290056Z AUTO 10005KT 16/08 A2995 RMK AO1 SLP141 T01610078





000
SAUS43 KDDC 282358
MTRP28
METAR KP28 282356Z AUTO 10006KT 18/07 A2994 RMK AO1 SLP135 T01780067
10206 20167 55000





000
SAUS43 KDDC 282257
MTRP28
METAR KP28 282256Z AUTO 08007KT 19/06 A2993 RMK AO1 SLP131 T01890061





000
SAUS43 KDDC 282257
MTRP28
METAR KP28 282256Z AUTO 08007KT 19/06 A2993 RMK AO1 SLP131 T01890061





000
SAUS43 KDDC 282158
MTRP28
METAR KP28 282156Z AUTO 07010KT 19/06 A2992 RMK AO1 SLP129 T01940056





000
SAUS43 KDDC 282057
MTRP28
METAR KP28 282056Z AUTO 05007KT 20/04 A2994 RMK AO1 SLP134 T02000044
57014





000
SAUS43 KDDC 282057
MTRP28
METAR KP28 282056Z AUTO 05007KT 20/04 A2994 RMK AO1 SLP134 T02000044
57014





000
SAUS43 KDDC 281957
MTRP28
METAR KP28 281956Z AUTO 10006G15KT 19/04 A2995 RMK AO1 SLP139
T01890039





000
SAUS43 KDDC 281857
MTRP28
METAR KP28 281856Z AUTO 05009KT 18/03 A2997 RMK AO1 SLP145 T01830033





000
SAUS43 KDDC 281757
MTRP28
METAR KP28 281756Z AUTO 04009KT 17/03 A2998 RMK AO1 SLP149 T01720028
10172 20072 50003





000
SAUS43 KDDC 281757
MTRP28
METAR KP28 281756Z AUTO 04009KT 17/03 A2998 RMK AO1 SLP149 T01720028
10172 20072 50003





000
SAUS43 KDDC 281657
MTRP28
METAR KP28 281656Z AUTO 36008KT 14/02 A2999 RMK AO1 SLP156 T01440022





000
SAUS43 KDDC 281557
MTRP28
METAR KP28 281556Z AUTO 36013KT 13/02 A2998 RMK AO1 SLP153 T01330017





000
SAUS43 KDDC 281458
MTRP28
METAR KP28 281456Z AUTO 36011KT 11/01 A2997 RMK AO1 SLP150 T01060011
51009





000
SAUS43 KDDC 281358
MTRP28
METAR KP28 281356Z AUTO 35010KT 09/02 A2997 RMK AO1 SLP147 T00940022





000
SAUS43 KDDC 281358
MTRP28
METAR KP28 281356Z AUTO 35010KT 09/02 A2997 RMK AO1 SLP147 T00940022





000
SAUS43 KDDC 281258
MTRP28
METAR KP28 281256Z AUTO 35008KT 09/04 A2995 RMK AO1 SLP141 T00890039





000
SAUS43 KDDC 281258
MTRP28
METAR KP28 281256Z AUTO 35008KT 09/04 A2995 RMK AO1 SLP141 T00890039





000
SAUS43 KDDC 281158
MTRP28
METAR KP28 281156Z AUTO 33007KT 07/03 A2994 RMK AO1 SLP137 T00720033
10094 20072 51021





000
SAUS43 KDDC 281158
MTRP28
METAR KP28 281156Z AUTO 33007KT 07/03 A2994 RMK AO1 SLP137 T00720033
10094 20072 51021





000
SAUS43 KDDC 281057
MTRP28
METAR KP28 281056Z AUTO 32005KT 08/04 A2993 RMK AO1 SLP130 T00830044





000
SAUS43 KDDC 281057
MTRP28
METAR KP28 281056Z AUTO 32005KT 08/04 A2993 RMK AO1 SLP130 T00830044





000
SAUS43 KDDC 280958
MTRP28
METAR KP28 280956Z AUTO 32003KT 08/04 A2991 RMK AO1 SLP122 T00830044





000
SAUS43 KDDC 280858
MTRP28
METAR KP28 280856Z AUTO 36006KT 07/05 A2988 RMK AO1 SLP114 T00720050
53013





000
SAUS43 KDDC 280758
MTRP28
METAR KP28 280756Z AUTO 35003KT 08/05 A2987 RMK AO1 SLP110 T00830050





000
SAUS43 KDDC 280657
MTRP28
METAR KP28 280656Z AUTO 02004KT 08/06 A2984 RMK AO1 SLP100 T00830056





000
SAUS43 KDDC 280557
MTRP28
METAR KP28 280556Z AUTO 30003KT 09/05 A2984 RMK AO1 SLP101 T00890050
10183 20083 402060083 53014





000
SAUS43 KDDC 280557
MTRP28
METAR KP28 280556Z AUTO 30003KT 09/05 A2984 RMK AO1 SLP101 T00890050
10183 20083 402060083 53014





000
SAUS43 KDDC 280458
MTRP28
METAR KP28 280456Z AUTO 01005KT 08/05 A2981 RMK AO1 SLP092 T00830050





000
SAUS43 KDDC 280358
MTRP28
METAR KP28 280356Z AUTO 01004KT 09/05 A2982 RMK AO1 SLP098 T00890050





000
SAUS43 KDDC 280258
MTRP28
METAR KP28 280256Z AUTO 01005KT 10/06 A2980 RMK AO1 SLP088 T01000061
53025





000
SAUS43 KDDC 280258
MTRP28
METAR KP28 280256Z AUTO 01005KT 10/06 A2980 RMK AO1 SLP088 T01000061
53025





    US Dept of Commerce
    National Oceanic and Atmospheric Administration
    National Weather Service
    1325 East West Highway
    Silver Spring, MD 20910
    Page Author: NWS Internet Services Team
Disclaimer
Information Quality
Credits
Glossary
Privacy Policy
Freedom of Information Act (FOIA)
About Us
Career Opportunities